createdAt,value
2023-05-21T00:00:43.456Z,0.00
2023-05-21T00:01:43.439Z,0.00
2023-05-21T00:02:43.499Z,0.00
2023-05-21T00:03:43.535Z,0.00
2023-05-21T00:04:43.392Z,0.00
2023-05-21T00:05:43.378Z,0.00
2023-05-21T00:06:43.376Z,0.00
2023-05-21T00:07:43.428Z,0.00
2023-05-21T00:08:43.350Z,0.00
2023-05-21T00:09:43.280Z,0.00
2023-05-21T00:10:43.323Z,0.00
2023-05-21T00:11:45.327Z,0.00
2023-05-21T00:12:43.331Z,0.00
2023-05-21T00:13:43.273Z,0.00
2023-05-21T00:14:43.263Z,0.00
2023-05-21T00:15:43.248Z,0.00
2023-05-21T00:16:45.339Z,0.00
2023-05-21T00:17:43.613Z,0.00
2023-05-21T00:18:43.327Z,0.00
2023-05-21T00:19:43.205Z,0.00
2023-05-21T00:20:43.206Z,0.00
2023-05-21T00:21:44.999Z,0.00
2023-05-21T00:22:43.168Z,0.00
2023-05-21T00:23:43.171Z,0.00
2023-05-21T00:24:43.201Z,0.00
2023-05-21T00:25:43.225Z,0.00
2023-05-21T00:26:43.198Z,0.00
2023-05-21T00:27:43.129Z,0.00
2023-05-21T00:28:43.114Z,0.00
2023-05-21T00:29:44.229Z,0.00
2023-05-21T00:30:44.579Z,0.00
2023-05-21T00:31:43.289Z,0.00
2023-05-21T00:32:43.278Z,0.00
2023-05-21T00:33:43.083Z,0.00
2023-05-21T00:34:43.044Z,0.00
2023-05-21T00:35:43.085Z,0.00
2023-05-21T00:36:43.040Z,0.00
2023-05-21T00:37:44.969Z,0.00
2023-05-21T00:38:43.073Z,0.00
2023-05-21T00:39:42.992Z,0.00
2023-05-21T00:40:44.792Z,0.00
2023-05-21T00:41:42.995Z,0.00
2023-05-21T00:42:42.956Z,0.00
2023-05-21T00:43:42.960Z,0.00
2023-05-21T00:44:44.408Z,0.00
2023-05-21T00:45:43.066Z,0.00
2023-05-21T00:46:42.907Z,0.00
2023-05-21T00:47:42.934Z,0.00
2023-05-21T00:48:42.884Z,0.00
2023-05-21T00:49:42.923Z,0.00
2023-05-21T00:50:42.864Z,0.00
2023-05-21T00:51:42.965Z,0.00
2023-05-21T00:52:44.376Z,0.00
2023-05-21T00:53:42.850Z,0.00
2023-05-21T00:54:42.896Z,0.00
2023-05-21T00:55:42.817Z,0.00
2023-05-21T00:56:42.789Z,0.00
2023-05-21T00:57:42.793Z,0.00
2023-05-21T00:58:44.243Z,0.00
2023-05-21T00:59:43.195Z,0.00
2023-05-21T01:00:42.782Z,0.00
2023-05-21T01:01:42.881Z,0.00
2023-05-21T01:02:42.795Z,0.00
2023-05-21T01:03:42.855Z,0.00
2023-05-21T01:04:42.773Z,0.00
2023-05-21T01:05:44.224Z,0.00
2023-05-21T01:06:43.021Z,0.00
2023-05-21T01:07:43.269Z,0.00
2023-05-21T01:08:42.706Z,0.00
2023-05-21T01:09:42.660Z,0.00
2023-05-21T01:10:42.635Z,0.00
2023-05-21T01:11:42.639Z,0.00
2023-05-21T01:12:42.685Z,0.00
2023-05-21T01:13:42.854Z,0.00
2023-05-21T01:14:42.596Z,0.00
2023-05-21T01:15:42.610Z,0.00
2023-05-21T01:16:42.621Z,0.00
2023-05-21T01:17:44.364Z,0.00
2023-05-21T01:18:42.626Z,0.00
2023-05-21T01:19:42.683Z,0.00
2023-05-21T01:20:42.545Z,0.00
2023-05-21T01:21:42.532Z,0.00
2023-05-21T01:22:42.573Z,0.00
2023-05-21T01:23:42.496Z,0.00
2023-05-21T01:24:42.476Z,0.00
2023-05-21T01:25:42.487Z,0.00
2023-05-21T01:26:42.481Z,0.00
2023-05-21T01:27:42.499Z,0.00
2023-05-21T01:28:42.448Z,0.00
2023-05-21T01:29:42.437Z,0.00
2023-05-21T01:30:43.902Z,0.00
2023-05-21T01:31:42.487Z,0.00
2023-05-21T01:32:42.528Z,0.00
2023-05-21T01:33:42.442Z,0.00
2023-05-21T01:34:42.371Z,0.00
2023-05-21T01:35:42.387Z,0.00
2023-05-21T01:36:42.430Z,0.00
2023-05-21T01:37:42.341Z,0.00
2023-05-21T01:38:42.334Z,0.00
2023-05-21T01:39:42.344Z,0.00
2023-05-21T01:40:42.335Z,0.00
2023-05-21T01:41:42.349Z,0.00
2023-05-21T01:42:42.263Z,0.00
2023-05-21T01:43:43.834Z,0.00
2023-05-21T01:44:42.277Z,0.00
2023-05-21T01:45:42.306Z,0.00
2023-05-21T01:46:42.352Z,0.00
2023-05-21T01:47:42.265Z,0.00
2023-05-21T01:48:42.579Z,0.00
2023-05-21T01:49:43.682Z,0.00
2023-05-21T01:50:42.252Z,0.00
2023-05-21T01:51:42.210Z,0.00
2023-05-21T01:52:42.190Z,0.00
2023-05-21T01:53:42.223Z,0.00
2023-05-21T01:54:42.205Z,0.00
2023-05-21T01:55:43.665Z,0.00
2023-05-21T01:56:42.164Z,0.00
2023-05-21T01:57:42.152Z,0.00
2023-05-21T01:58:42.094Z,0.00
2023-05-21T01:59:42.162Z,0.00
2023-05-21T02:00:42.068Z,0.00
2023-05-21T02:01:42.066Z,0.00
2023-05-21T02:02:42.247Z,0.00
2023-05-21T02:03:42.153Z,0.00
2023-05-21T02:04:42.122Z,0.00
2023-05-21T02:05:42.014Z,0.00
2023-05-21T02:06:42.088Z,0.00
2023-05-21T02:07:42.050Z,0.00
2023-05-21T02:08:42.044Z,0.00
2023-05-21T02:09:42.038Z,0.00
2023-05-21T02:10:42.098Z,0.00
2023-05-21T02:11:42.062Z,0.00
2023-05-21T02:12:42.008Z,0.00
2023-05-21T02:13:42.061Z,0.00
2023-05-21T02:14:42.040Z,0.00
2023-05-21T02:15:42.022Z,0.00
2023-05-21T02:16:44.039Z,0.00
2023-05-21T02:17:41.959Z,0.00
2023-05-21T02:18:42.018Z,0.00
2023-05-21T02:19:41.897Z,0.00
2023-05-21T02:20:41.913Z,0.00
2023-05-21T02:21:41.913Z,0.00
2023-05-21T02:22:42.598Z,0.00
2023-05-21T02:23:41.856Z,0.00
2023-05-21T02:24:41.800Z,0.00
2023-05-21T02:25:41.841Z,0.00
2023-05-21T02:26:41.819Z,0.00
2023-05-21T02:27:42.144Z,0.00
2023-05-21T02:28:43.300Z,0.00
2023-05-21T02:29:41.789Z,0.00
2023-05-21T02:30:41.797Z,0.00
2023-05-21T02:31:41.731Z,0.00
2023-05-21T02:32:41.889Z,0.00
2023-05-21T02:33:41.785Z,0.00
2023-05-21T02:34:41.737Z,0.00
2023-05-21T02:35:41.892Z,0.00
2023-05-21T02:36:41.827Z,0.00
2023-05-21T02:37:43.669Z,0.00
2023-05-21T02:38:41.688Z,0.00
2023-05-21T02:39:41.664Z,0.00
2023-05-21T02:40:41.627Z,0.00
2023-05-21T02:41:41.711Z,0.00
2023-05-21T02:42:42.201Z,0.00
2023-05-21T02:43:41.618Z,0.00
2023-05-21T02:44:41.625Z,0.00
2023-05-21T02:45:41.636Z,0.00
2023-05-21T02:46:41.604Z,0.00
2023-05-21T02:47:41.680Z,0.00
2023-05-21T02:48:43.052Z,0.00
2023-05-21T02:49:42.078Z,0.00
2023-05-21T02:50:41.622Z,0.00
2023-05-21T02:51:41.568Z,0.00
2023-05-21T02:52:41.484Z,0.00
2023-05-21T02:53:41.540Z,0.00
2023-05-21T02:54:41.525Z,0.00
2023-05-21T02:55:41.544Z,0.00
2023-05-21T02:56:41.490Z,0.00
2023-05-21T02:57:41.468Z,0.00
2023-05-21T02:58:41.461Z,4.00
2023-05-21T02:59:41.454Z,0.00
2023-05-21T03:00:43.262Z,0.00
2023-05-21T03:01:42.936Z,0.00
2023-05-21T03:02:41.768Z,0.00
2023-05-21T03:03:41.450Z,4.00
2023-05-21T03:04:41.395Z,0.00
2023-05-21T03:05:41.494Z,4.00
2023-05-21T03:06:41.568Z,0.00
2023-05-21T03:07:42.824Z,4.00
2023-05-21T03:08:41.403Z,0.00
2023-05-21T03:09:41.354Z,0.00
2023-05-21T03:10:41.340Z,0.00
2023-05-21T03:11:41.312Z,0.00
2023-05-21T03:12:41.223Z,4.00
2023-05-21T03:13:41.306Z,4.00
2023-05-21T03:14:42.786Z,4.00
2023-05-21T03:15:41.256Z,4.00
2023-05-21T03:16:41.294Z,4.00
2023-05-21T03:17:41.356Z,8.00
2023-05-21T03:18:41.358Z,8.00
2023-05-21T03:19:41.306Z,8.00
2023-05-21T03:20:41.460Z,8.00
2023-05-21T03:21:42.654Z,8.00
2023-05-21T03:22:41.196Z,8.00
2023-05-21T03:23:41.172Z,12.00
2023-05-21T03:24:41.189Z,12.00
2023-05-21T03:25:41.179Z,8.00
2023-05-21T03:26:43.129Z,12.00
2023-05-21T03:27:43.185Z,16.00
2023-05-21T03:28:41.203Z,16.00
2023-05-21T03:29:41.173Z,16.00
2023-05-21T03:30:41.152Z,16.00
2023-05-21T03:31:41.138Z,16.00
2023-05-21T03:32:41.216Z,16.00
2023-05-21T03:33:41.171Z,20.00
2023-05-21T03:34:41.094Z,24.00
2023-05-21T03:35:41.106Z,24.00
2023-05-21T03:36:41.065Z,24.00
2023-05-21T03:37:41.100Z,28.00
2023-05-21T03:38:41.076Z,28.00
2023-05-21T03:39:40.978Z,32.00
2023-05-21T03:40:42.965Z,32.00
2023-05-21T03:41:41.409Z,36.00
2023-05-21T03:42:41.036Z,36.00
2023-05-21T03:43:41.064Z,40.00
2023-05-21T03:44:40.925Z,44.00
2023-05-21T03:45:43.576Z,48.00
2023-05-21T03:46:41.083Z,48.00
2023-05-21T03:47:41.104Z,52.00
2023-05-21T03:48:40.937Z,56.00
2023-05-21T03:49:40.929Z,60.00
2023-05-21T03:50:41.008Z,64.00
2023-05-21T03:51:40.924Z,68.00
2023-05-21T03:52:40.977Z,72.00
2023-05-21T03:53:41.109Z,76.00
2023-05-21T03:54:40.939Z,80.00
2023-05-21T03:55:40.853Z,84.00
2023-05-21T03:56:40.885Z,88.00
2023-05-21T03:57:40.876Z,96.00
2023-05-21T03:58:40.783Z,100.00
2023-05-21T03:59:40.796Z,108.00
2023-05-21T04:00:41.139Z,112.00
2023-05-21T04:01:41.032Z,116.00
2023-05-21T04:02:40.824Z,124.00
2023-05-21T04:03:41.172Z,132.00
2023-05-21T04:04:40.829Z,136.00
2023-05-21T04:05:40.733Z,144.00
2023-05-21T04:06:40.766Z,152.00
2023-05-21T04:07:40.734Z,164.00
2023-05-21T04:08:40.698Z,176.00
2023-05-21T04:09:40.673Z,176.00
2023-05-21T04:10:40.724Z,184.00
2023-05-21T04:11:40.707Z,188.00
2023-05-21T04:12:40.661Z,192.00
2023-05-21T04:13:40.697Z,192.00
2023-05-21T04:14:40.847Z,196.00
2023-05-21T04:15:40.675Z,196.00
2023-05-21T04:16:40.647Z,204.00
2023-05-21T04:17:40.652Z,212.00
2023-05-21T04:18:40.582Z,232.00
2023-05-21T04:19:40.613Z,252.00
2023-05-21T04:20:42.566Z,264.00
2023-05-21T04:21:40.486Z,276.00
2023-05-21T04:22:40.544Z,288.00
2023-05-21T04:23:40.533Z,304.00
2023-05-21T04:24:40.582Z,316.00
2023-05-21T04:25:40.595Z,324.00
2023-05-21T04:26:40.526Z,328.00
2023-05-21T04:27:41.989Z,332.00
2023-05-21T04:28:40.499Z,336.00
2023-05-21T04:29:40.520Z,340.00
2023-05-21T04:30:40.544Z,344.00
2023-05-21T04:31:40.523Z,344.00
2023-05-21T04:32:40.503Z,348.00
2023-05-21T04:33:40.463Z,352.00
2023-05-21T04:34:40.702Z,364.00
2023-05-21T04:35:40.442Z,368.00
2023-05-21T04:36:40.384Z,368.00
2023-05-21T04:37:40.357Z,368.00
2023-05-21T04:38:40.366Z,372.00
2023-05-21T04:39:40.406Z,384.00
2023-05-21T04:40:40.389Z,384.00
2023-05-21T04:41:40.470Z,388.00
2023-05-21T04:42:40.289Z,392.00
2023-05-21T04:43:40.360Z,388.00
2023-05-21T04:44:40.409Z,396.00
2023-05-21T04:45:40.293Z,396.00
2023-05-21T04:46:41.663Z,400.00
2023-05-21T04:47:40.562Z,400.00
2023-05-21T04:48:41.819Z,400.00
2023-05-21T04:49:40.244Z,404.00
2023-05-21T04:50:40.257Z,404.00
2023-05-21T04:51:40.256Z,404.00
2023-05-21T04:52:40.315Z,404.00
2023-05-21T04:53:40.249Z,400.00
2023-05-21T04:54:40.281Z,396.00
2023-05-21T04:55:40.281Z,396.00
2023-05-21T04:56:40.146Z,392.00
2023-05-21T04:57:40.172Z,392.00
2023-05-21T04:58:40.231Z,392.00
2023-05-21T04:59:40.115Z,396.00
2023-05-21T05:00:40.190Z,404.00
2023-05-21T05:01:40.417Z,408.00
2023-05-21T05:02:40.265Z,408.00
2023-05-21T05:03:40.132Z,412.00
2023-05-21T05:04:40.120Z,416.00
2023-05-21T05:05:40.056Z,424.00
2023-05-21T05:06:40.049Z,428.00
2023-05-21T05:07:40.085Z,440.00
2023-05-21T05:08:40.256Z,456.00
2023-05-21T05:09:40.038Z,472.00
2023-05-21T05:10:40.014Z,480.00
2023-05-21T05:11:39.998Z,484.00
2023-05-21T05:12:40.083Z,488.00
2023-05-21T05:13:41.015Z,484.00
2023-05-21T05:14:40.003Z,480.00
2023-05-21T05:15:39.967Z,480.00
2023-05-21T05:16:40.045Z,480.00
2023-05-21T05:17:40.054Z,488.00
2023-05-21T05:18:39.925Z,504.00
2023-05-21T05:19:41.856Z,512.00
2023-05-21T05:20:40.141Z,512.00
2023-05-21T05:21:39.970Z,512.00
2023-05-21T05:22:39.893Z,512.00
2023-05-21T05:23:39.877Z,516.00
2023-05-21T05:24:39.866Z,516.00
2023-05-21T05:25:39.931Z,524.00
2023-05-21T05:26:40.110Z,540.00
2023-05-21T05:27:39.803Z,548.00
2023-05-21T05:28:39.799Z,552.00
2023-05-21T05:29:39.873Z,552.00
2023-05-21T05:30:39.906Z,556.00
2023-05-21T05:31:39.839Z,548.00
2023-05-21T05:32:41.793Z,540.00
2023-05-21T05:33:39.759Z,532.00
2023-05-21T05:34:39.758Z,528.00
2023-05-21T05:35:39.835Z,528.00
2023-05-21T05:36:39.763Z,532.00
2023-05-21T05:37:39.747Z,544.00
2023-05-21T05:38:39.722Z,552.00
2023-05-21T05:39:39.825Z,556.00
2023-05-21T05:40:39.734Z,560.00
2023-05-21T05:41:39.717Z,564.00
2023-05-21T05:42:39.683Z,572.00
2023-05-21T05:43:39.789Z,588.00
2023-05-21T05:44:42.957Z,608.00
2023-05-21T05:45:39.806Z,628.00
2023-05-21T05:46:39.741Z,656.00
2023-05-21T05:47:39.639Z,676.00
2023-05-21T05:48:39.631Z,692.00
2023-05-21T05:49:39.620Z,704.00
2023-05-21T05:50:39.590Z,716.00
2023-05-21T05:51:39.971Z,736.00
2023-05-21T05:52:39.572Z,752.00
2023-05-21T05:53:39.600Z,764.00
2023-05-21T05:54:39.596Z,768.00
2023-05-21T05:55:39.648Z,764.00
2023-05-21T05:56:39.516Z,756.00
2023-05-21T05:57:39.542Z,740.00
2023-05-21T05:58:41.414Z,728.00
2023-05-21T05:59:39.490Z,716.00
2023-05-21T06:00:39.480Z,712.00
2023-05-21T06:01:39.456Z,720.00
2023-05-21T06:02:39.525Z,728.00
2023-05-21T06:03:39.568Z,752.00
2023-05-21T06:04:39.494Z,776.00
2023-05-21T06:05:39.791Z,796.00
2023-05-21T06:06:39.391Z,812.00
2023-05-21T06:07:39.427Z,832.00
2023-05-21T06:08:39.469Z,844.00
2023-05-21T06:09:39.348Z,852.00
2023-05-21T06:10:41.332Z,864.00
2023-05-21T06:11:39.402Z,880.00
2023-05-21T06:12:39.409Z,892.00
2023-05-21T06:13:39.384Z,912.00
2023-05-21T06:14:39.333Z,928.00
2023-05-21T06:15:39.363Z,940.00
2023-05-21T06:16:39.443Z,948.00
2023-05-21T06:17:39.390Z,952.00
2023-05-21T06:18:39.235Z,940.00
2023-05-21T06:19:39.317Z,932.00
2023-05-21T06:20:39.281Z,908.00
2023-05-21T06:21:39.302Z,884.00
2023-05-21T06:22:39.318Z,864.00
2023-05-21T06:23:39.242Z,844.00
2023-05-21T06:24:39.210Z,828.00
2023-05-21T06:25:39.339Z,812.00
2023-05-21T06:26:39.184Z,796.00
2023-05-21T06:27:39.239Z,788.00
2023-05-21T06:28:39.141Z,776.00
2023-05-21T06:29:39.160Z,780.00
2023-05-21T06:30:39.135Z,784.00
2023-05-21T06:31:39.195Z,796.00
2023-05-21T06:32:41.203Z,812.00
2023-05-21T06:33:39.467Z,824.00
2023-05-21T06:34:39.130Z,840.00
2023-05-21T06:35:39.218Z,860.00
2023-05-21T06:36:39.127Z,880.00
2023-05-21T06:37:39.084Z,900.00
2023-05-21T06:38:39.120Z,916.00
2023-05-21T06:39:39.053Z,928.00
2023-05-21T06:40:39.062Z,936.00
2023-05-21T06:41:39.058Z,932.00
2023-05-21T06:42:39.023Z,920.00
2023-05-21T06:43:38.999Z,908.00
2023-05-21T06:44:40.957Z,908.00
2023-05-21T06:45:39.228Z,928.00
2023-05-21T06:46:39.004Z,952.00
2023-05-21T06:47:39.058Z,984.00
2023-05-21T06:48:38.981Z,1004.00
2023-05-21T06:49:38.894Z,1020.00
2023-05-21T06:50:40.721Z,1032.00
2023-05-21T06:51:38.902Z,1056.00
2023-05-21T06:52:38.937Z,1076.00
2023-05-21T06:53:38.870Z,1096.00
2023-05-21T06:54:38.882Z,1120.00
2023-05-21T06:55:39.111Z,1148.00
2023-05-21T06:56:38.856Z,1156.00
2023-05-21T06:57:38.851Z,1152.00
2023-05-21T06:58:39.197Z,1152.00
2023-05-21T06:59:38.893Z,1156.00
2023-05-21T07:00:38.850Z,1168.00
2023-05-21T07:01:38.877Z,1184.00
2023-05-21T07:02:38.951Z,1204.00
2023-05-21T07:03:38.868Z,1228.00
2023-05-21T07:04:38.872Z,1244.00
2023-05-21T07:05:40.717Z,1260.00
2023-05-21T07:06:38.822Z,1280.00
2023-05-21T07:07:38.727Z,1284.00
2023-05-21T07:08:38.759Z,1276.00
2023-05-21T07:09:38.839Z,1260.00
2023-05-21T07:10:38.745Z,1244.00
2023-05-21T07:11:38.697Z,1224.00
2023-05-21T07:12:38.710Z,1220.00
2023-05-21T07:13:39.037Z,1224.00
2023-05-21T07:14:38.913Z,1232.00
2023-05-21T07:15:38.952Z,1240.00
2023-05-21T07:16:38.714Z,1240.00
2023-05-21T07:17:38.626Z,1240.00
2023-05-21T07:18:38.679Z,1232.00
2023-05-21T07:19:38.687Z,1232.00
2023-05-21T07:20:38.688Z,1240.00
2023-05-21T07:21:38.782Z,1248.00
2023-05-21T07:22:38.609Z,1256.00
2023-05-21T07:23:38.667Z,1268.00
2023-05-21T07:24:38.550Z,1272.00
2023-05-21T07:25:39.405Z,1292.00
2023-05-21T07:26:40.534Z,1316.00
2023-05-21T07:27:40.046Z,1344.00
2023-05-21T07:28:38.591Z,1360.00
2023-05-21T07:29:38.505Z,1376.00
2023-05-21T07:30:38.456Z,1380.00
2023-05-21T07:31:38.537Z,1388.00
2023-05-21T07:32:38.582Z,1400.00
2023-05-21T07:33:38.650Z,1432.00
2023-05-21T07:34:38.485Z,1460.00
2023-05-21T07:35:38.531Z,1472.00
2023-05-21T07:36:38.350Z,1480.00
2023-05-21T07:37:38.566Z,1488.00
2023-05-21T07:38:38.396Z,1468.00
2023-05-21T07:39:38.560Z,1460.00
2023-05-21T07:40:38.380Z,1452.00
2023-05-21T07:41:38.370Z,1444.00
2023-05-21T07:42:38.354Z,1448.00
2023-05-21T07:43:38.349Z,1456.00
2023-05-21T07:44:38.349Z,1484.00
2023-05-21T07:45:38.590Z,1512.00
2023-05-21T07:46:38.396Z,1528.00
2023-05-21T07:47:38.594Z,1544.00
2023-05-21T07:48:38.343Z,1552.00
2023-05-21T07:49:38.259Z,1548.00
2023-05-21T07:50:38.291Z,1564.00
2023-05-21T07:51:38.322Z,1620.00
2023-05-21T07:52:38.313Z,1648.00
2023-05-21T07:53:38.267Z,1680.00
2023-05-21T07:54:38.402Z,1688.00
2023-05-21T07:55:38.557Z,1688.00
2023-05-21T07:56:38.242Z,1676.00
2023-05-21T07:57:38.165Z,1668.00
2023-05-21T07:58:38.241Z,1652.00
2023-05-21T07:59:40.139Z,1648.00
2023-05-21T08:00:38.227Z,1652.00
2023-05-21T08:01:38.197Z,1648.00
2023-05-21T08:02:38.191Z,1628.00
2023-05-21T08:03:38.291Z,1608.00
2023-05-21T08:04:40.789Z,1572.00
2023-05-21T08:05:38.469Z,1552.00
2023-05-21T08:06:38.279Z,1520.00
2023-05-21T08:07:38.069Z,1524.00
2023-05-21T08:08:38.035Z,1492.00
2023-05-21T08:09:38.178Z,1472.00
2023-05-21T08:10:38.098Z,1452.00
2023-05-21T08:11:38.051Z,1420.00
2023-05-21T08:12:38.056Z,1388.00
2023-05-21T08:13:38.027Z,1356.00
2023-05-21T08:14:38.026Z,1328.00
2023-05-21T08:15:38.245Z,1324.00
2023-05-21T08:16:38.008Z,1328.00
2023-05-21T08:17:37.983Z,1328.00
2023-05-21T08:18:38.135Z,1340.00
2023-05-21T08:19:38.066Z,1348.00
2023-05-21T08:20:39.856Z,1356.00
2023-05-21T08:21:37.944Z,1364.00
2023-05-21T08:22:37.915Z,1372.00
2023-05-21T08:23:37.943Z,1384.00
2023-05-21T08:24:38.080Z,1404.00
2023-05-21T08:25:38.490Z,1424.00
2023-05-21T08:26:37.924Z,1432.00
2023-05-21T08:27:37.887Z,1468.00
2023-05-21T08:28:37.864Z,1524.00
2023-05-21T08:29:37.931Z,1584.00
2023-05-21T08:30:37.862Z,1616.00
2023-05-21T08:31:38.252Z,1628.00
2023-05-21T08:32:37.868Z,1616.00
2023-05-21T08:33:39.684Z,1588.00
2023-05-21T08:34:37.839Z,1568.00
2023-05-21T08:35:38.094Z,1552.00
2023-05-21T08:36:37.726Z,1548.00
2023-05-21T08:37:37.769Z,1548.00
2023-05-21T08:38:39.759Z,1560.00
2023-05-21T08:39:37.737Z,1576.00
2023-05-21T08:40:37.731Z,1584.00
2023-05-21T08:41:37.726Z,1592.00
2023-05-21T08:42:37.878Z,1604.00
2023-05-21T08:43:37.662Z,1624.00
2023-05-21T08:44:37.688Z,1644.00
2023-05-21T08:45:38.793Z,1664.00
2023-05-21T08:46:38.433Z,1672.00
2023-05-21T08:47:37.719Z,1688.00
2023-05-21T08:48:39.569Z,1700.00
2023-05-21T08:49:37.631Z,1704.00
2023-05-21T08:50:37.612Z,1700.00
2023-05-21T08:51:37.637Z,1688.00
2023-05-21T08:52:37.713Z,1676.00
2023-05-21T08:53:37.604Z,1656.00
2023-05-21T08:54:37.587Z,1648.00
2023-05-21T08:55:37.772Z,1632.00
2023-05-21T08:56:37.526Z,1620.00
2023-05-21T08:57:37.626Z,1620.00
2023-05-21T08:58:37.657Z,1616.00
2023-05-21T08:59:39.635Z,1620.00
2023-05-21T09:00:37.556Z,1624.00
2023-05-21T09:01:37.693Z,1620.00
2023-05-21T09:02:37.633Z,1608.00
2023-05-21T09:03:37.487Z,1584.00
2023-05-21T09:04:37.774Z,1564.00
2023-05-21T09:05:37.708Z,1560.00
2023-05-21T09:06:37.513Z,1552.00
2023-05-21T09:07:37.437Z,1560.00
2023-05-21T09:08:37.869Z,1564.00
2023-05-21T09:09:37.421Z,1584.00
2023-05-21T09:10:37.538Z,1600.00
2023-05-21T09:11:37.471Z,1616.00
2023-05-21T09:12:37.385Z,1608.00
2023-05-21T09:13:38.957Z,1600.00
2023-05-21T09:14:48.670Z,1592.00
2023-05-21T09:15:37.975Z,1596.00
2023-05-21T09:16:37.384Z,1608.00
2023-05-21T09:17:37.611Z,1644.00
2023-05-21T09:18:37.307Z,1672.00
2023-05-21T09:19:37.537Z,1704.00
2023-05-21T09:20:37.336Z,1732.00
2023-05-21T09:21:37.252Z,1732.00
2023-05-21T09:22:37.266Z,1724.00
2023-05-21T09:23:37.354Z,1712.00
2023-05-21T09:24:37.200Z,1728.00
2023-05-21T09:25:37.395Z,1752.00
2023-05-21T09:26:37.233Z,1772.00
2023-05-21T09:27:37.222Z,1792.00
2023-05-21T09:28:37.245Z,1808.00
2023-05-21T09:29:37.294Z,1804.00
2023-05-21T09:30:37.329Z,1804.00
2023-05-21T09:31:38.329Z,1788.00
2023-05-21T09:32:37.123Z,1772.00
2023-05-21T09:33:37.146Z,1796.00
2023-05-21T09:34:38.616Z,1816.00
2023-05-21T09:35:38.208Z,1832.00
2023-05-21T09:36:37.099Z,1856.00
2023-05-21T09:37:37.164Z,1892.00
2023-05-21T09:38:37.087Z,1940.00
2023-05-21T09:39:37.135Z,1984.00
2023-05-21T09:40:37.425Z,2016.00
2023-05-21T09:41:37.084Z,2056.00
2023-05-21T09:42:37.044Z,2108.00
2023-05-21T09:43:36.968Z,2156.00
2023-05-21T09:44:37.051Z,2200.00
2023-05-21T09:45:37.203Z,2244.00
2023-05-21T09:46:37.062Z,2272.00
2023-05-21T09:47:37.298Z,2300.00
2023-05-21T09:48:37.068Z,2324.00
2023-05-21T09:49:36.998Z,2332.00
2023-05-21T09:50:37.138Z,2328.00
2023-05-21T09:51:36.988Z,2336.00
2023-05-21T09:52:37.200Z,2348.00
2023-05-21T09:53:38.864Z,2368.00
2023-05-21T09:54:36.954Z,2388.00
2023-05-21T09:55:36.911Z,2428.00
2023-05-21T09:56:36.893Z,2460.00
2023-05-21T09:57:36.895Z,2428.00
2023-05-21T09:58:36.980Z,2368.00
2023-05-21T09:59:36.871Z,2332.00
2023-05-21T10:00:37.086Z,2296.00
2023-05-21T10:01:36.887Z,2252.00
2023-05-21T10:02:36.940Z,2200.00
2023-05-21T10:03:36.880Z,2164.00
2023-05-21T10:04:36.947Z,2160.00
2023-05-21T10:05:36.833Z,2172.00
2023-05-21T10:06:36.778Z,2184.00
2023-05-21T10:07:36.834Z,2176.00
2023-05-21T10:08:38.844Z,2168.00
2023-05-21T10:09:36.819Z,2168.00
2023-05-21T10:10:38.464Z,2184.00
2023-05-21T10:11:36.748Z,2216.00
2023-05-21T10:12:36.809Z,2260.00
2023-05-21T10:13:36.708Z,2296.00
2023-05-21T10:14:36.690Z,2320.00
2023-05-21T10:15:36.828Z,2308.00
2023-05-21T10:16:36.677Z,2284.00
2023-05-21T10:17:36.667Z,2256.00
2023-05-21T10:18:36.649Z,2220.00
2023-05-21T10:19:36.652Z,2192.00
2023-05-21T10:20:36.930Z,2176.00
2023-05-21T10:21:36.640Z,2200.00
2023-05-21T10:22:36.668Z,2244.00
2023-05-21T10:23:36.550Z,2276.00
2023-05-21T10:24:36.567Z,2272.00
2023-05-21T10:25:36.543Z,2236.00
2023-05-21T10:26:36.576Z,2192.00
2023-05-21T10:27:38.036Z,2164.00
2023-05-21T10:28:36.550Z,2144.00
2023-05-21T10:29:36.565Z,2156.00
2023-05-21T10:30:36.858Z,2172.00
2023-05-21T10:31:36.549Z,2192.00
2023-05-21T10:32:36.707Z,2196.00
2023-05-21T10:33:36.523Z,2204.00
2023-05-21T10:34:36.453Z,2220.00
2023-05-21T10:35:36.657Z,2236.00
2023-05-21T10:36:36.492Z,2252.00
2023-05-21T10:37:36.400Z,2252.00
2023-05-21T10:38:36.479Z,2236.00
2023-05-21T10:39:36.430Z,2228.00
2023-05-21T10:40:36.873Z,2212.00
2023-05-21T10:41:36.485Z,2212.00
2023-05-21T10:42:36.387Z,2204.00
2023-05-21T10:43:36.421Z,2188.00
2023-05-21T10:44:36.416Z,2164.00
2023-05-21T10:45:37.875Z,2148.00
2023-05-21T10:46:36.371Z,2136.00
2023-05-21T10:47:36.427Z,2148.00
2023-05-21T10:48:36.370Z,2180.00
2023-05-21T10:49:36.378Z,2212.00
2023-05-21T10:50:36.509Z,2236.00
2023-05-21T10:51:36.304Z,2244.00
2023-05-21T10:52:36.283Z,2264.00
2023-05-21T10:53:36.274Z,2276.00
2023-05-21T10:54:36.312Z,2312.00
2023-05-21T10:55:36.275Z,2396.00
2023-05-21T10:56:36.308Z,2488.00
2023-05-21T10:57:36.301Z,2548.00
2023-05-21T10:58:36.224Z,2580.00
2023-05-21T10:59:36.257Z,2548.00
2023-05-21T11:00:36.355Z,2516.00
2023-05-21T11:01:36.208Z,2496.00
2023-05-21T11:02:36.283Z,2468.00
2023-05-21T11:03:37.744Z,2448.00
2023-05-21T11:04:36.211Z,2424.00
2023-05-21T11:05:36.177Z,2412.00
2023-05-21T11:06:36.122Z,2404.00
2023-05-21T11:07:36.061Z,2416.00
2023-05-21T11:08:36.389Z,2428.00
2023-05-21T11:09:38.148Z,2416.00
2023-05-21T11:10:36.354Z,2392.00
2023-05-21T11:11:36.066Z,2368.00
2023-05-21T11:12:36.069Z,2308.00
2023-05-21T11:13:36.044Z,2244.00
2023-05-21T11:14:36.306Z,2204.00
2023-05-21T11:15:36.252Z,2184.00
2023-05-21T11:16:36.059Z,2176.00
2023-05-21T11:17:36.091Z,2176.00
2023-05-21T11:18:36.095Z,2168.00
2023-05-21T11:19:36.090Z,2152.00
2023-05-21T11:20:36.177Z,2136.00
2023-05-21T11:21:36.177Z,2136.00
2023-05-21T11:22:35.973Z,2140.00
2023-05-21T11:23:35.967Z,2144.00
2023-05-21T11:24:35.933Z,2144.00
2023-05-21T11:25:35.940Z,2132.00
2023-05-21T11:26:35.912Z,2112.00
2023-05-21T11:27:35.862Z,2100.00
2023-05-21T11:28:35.998Z,2116.00
2023-05-21T11:29:35.903Z,2140.00
2023-05-21T11:30:36.419Z,2172.00
2023-05-21T11:31:35.869Z,2212.00
2023-05-21T11:32:35.944Z,2260.00
2023-05-21T11:33:36.062Z,2300.00
2023-05-21T11:34:35.862Z,2324.00
2023-05-21T11:35:35.814Z,2328.00
2023-05-21T11:36:36.219Z,2328.00
2023-05-21T11:37:35.865Z,2324.00
2023-05-21T11:38:35.793Z,2328.00
2023-05-21T11:39:37.720Z,2320.00
2023-05-21T11:40:37.572Z,2320.00
2023-05-21T11:41:35.762Z,2324.00
2023-05-21T11:42:35.775Z,2320.00
2023-05-21T11:43:35.722Z,2300.00
2023-05-21T11:44:35.722Z,0.00
2023-05-21T11:45:35.741Z,0.00
2023-05-21T11:46:35.880Z,0.00
2023-05-21T11:47:35.691Z,0.00
2023-05-21T11:48:35.638Z,0.00
2023-05-21T11:49:35.674Z,0.00
2023-05-21T11:50:35.991Z,0.00
2023-05-21T11:51:35.652Z,0.00
2023-05-21T11:52:35.666Z,0.00
2023-05-21T11:53:35.625Z,0.00
2023-05-21T11:54:35.633Z,0.00
2023-05-21T11:55:35.588Z,0.00
2023-05-21T11:56:35.637Z,0.00
2023-05-21T11:57:35.568Z,0.00
2023-05-21T11:58:35.604Z,0.00
2023-05-21T11:59:37.481Z,0.00
2023-05-21T12:00:35.854Z,0.00
2023-05-21T12:01:35.592Z,0.00
2023-05-21T12:02:35.760Z,0.00
2023-05-21T12:03:35.676Z,0.00
2023-05-21T12:04:35.558Z,0.00
2023-05-21T12:05:35.522Z,0.00
2023-05-21T12:06:35.452Z,0.00
2023-05-21T12:07:35.454Z,0.00
2023-05-21T12:08:35.458Z,0.00
2023-05-21T12:09:35.645Z,0.00
2023-05-21T12:10:35.695Z,0.00
2023-05-21T12:11:35.423Z,0.00
2023-05-21T12:12:46.114Z,0.00
2023-05-21T12:13:36.382Z,0.00
2023-05-21T12:14:35.350Z,0.00
2023-05-21T12:15:35.426Z,0.00
2023-05-21T12:16:35.464Z,0.00
2023-05-21T12:17:35.398Z,0.00
2023-05-21T12:18:35.374Z,0.00
2023-05-21T12:19:35.340Z,0.00
2023-05-21T12:20:35.826Z,0.00
2023-05-21T12:21:35.289Z,0.00
2023-05-21T12:22:35.291Z,0.00
2023-05-21T12:23:35.328Z,0.00
2023-05-21T12:24:35.333Z,0.00
2023-05-21T12:25:35.282Z,0.00
2023-05-21T12:26:35.275Z,0.00
2023-05-21T12:27:35.293Z,0.00
2023-05-21T12:28:35.173Z,0.00
2023-05-21T12:29:35.243Z,0.00
2023-05-21T12:30:35.373Z,0.00
2023-05-21T12:31:35.210Z,0.00
2023-05-21T12:32:35.208Z,0.00
2023-05-21T12:33:35.363Z,0.00
2023-05-21T12:34:35.203Z,0.00
2023-05-21T12:35:35.171Z,0.00
2023-05-21T12:36:35.148Z,0.00